RJOZ(METAR)
04/24 20:00
METAR RJOZ 241100Z 29013KT 9999 FEW010 BKN015 BKN040 19/17 Q1006 RMK
2ST010 5CU015 7SC040 A2973=
戻る
トップページへ戻る
IMOC Co,.Ltd.